sensor_id;sensor_type;location;lat;lon;timestamp;P1;durP1;ratioP1;P2;durP2;ratioP2
21987;SDS011;11158;53.404;-1.510;2023-04-29T00:00:00;11.07;;;9.35;;
21987;SDS011;11158;53.404;-1.510;2023-04-29T00:02:44;9.30;;;7.03;;
21987;SDS011;11158;53.404;-1.510;2023-04-29T00:05:29;10.40;;;7.60;;
21987;SDS011;11158;53.404;-1.510;2023-04-29T00:08:13;8.32;;;7.43;;
21987;SDS011;11158;53.404;-1.510;2023-04-29T00:10:58;14.32;;;9.48;;
21987;SDS011;11158;53.404;-1.510;2023-04-29T00:13:42;12.48;;;9.15;;
21987;SDS011;11158;53.404;-1.510;2023-04-29T00:16:26;13.55;;;8.65;;
21987;SDS011;11158;53.404;-1.510;2023-04-29T00:19:10;10.95;;;8.02;;
21987;SDS011;11158;53.404;-1.510;2023-04-29T00:21:55;9.75;;;8.30;;
21987;SDS011;11158;53.404;-1.510;2023-04-29T00:24:39;9.20;;;8.25;;
21987;SDS011;11158;53.404;-1.510;2023-04-29T00:27:24;10.40;;;7.82;;
21987;SDS011;11158;53.404;-1.510;2023-04-29T00:30:08;10.25;;;7.95;;
21987;SDS011;11158;53.404;-1.510;2023-04-29T00:32:52;10.25;;;8.40;;
21987;SDS011;11158;53.404;-1.510;2023-04-29T00:35:36;12.13;;;8.18;;
21987;SDS011;11158;53.404;-1.510;2023-04-29T00:38:20;10.40;;;8.40;;
21987;SDS011;11158;53.404;-1.510;2023-04-29T00:41:04;8.82;;;7.82;;
21987;SDS011;11158;53.404;-1.510;2023-04-29T00:43:48;8.45;;;7.65;;
21987;SDS011;11158;53.404;-1.510;2023-04-29T00:46:32;8.25;;;7.43;;
21987;SDS011;11158;53.404;-1.510;2023-04-29T00:49:17;8.88;;;7.97;;
21987;SDS011;11158;53.404;-1.510;2023-04-29T00:52:01;8.45;;;7.65;;
21987;SDS011;11158;53.404;-1.510;2023-04-29T00:54:45;8.73;;;7.78;;
21987;SDS011;11158;53.404;-1.510;2023-04-29T00:57:29;7.85;;;7.03;;
21987;SDS011;11158;53.404;-1.510;2023-04-29T01:00:13;7.63;;;6.82;;
21987;SDS011;11158;53.404;-1.510;2023-04-29T01:02:58;11.15;;;7.97;;
21987;SDS011;11158;53.404;-1.510;2023-04-29T01:05:44;8.60;;;7.63;;
21987;SDS011;11158;53.404;-1.510;2023-04-29T01:11:48;10.50;;;8.35;;
21987;SDS011;11158;53.404;-1.510;2023-04-29T01:14:38;9.73;;;8.07;;
21987;SDS011;11158;53.404;-1.510;2023-04-29T01:17:26;13.07;;;7.90;;
21987;SDS011;11158;53.404;-1.510;2023-04-29T01:20:14;9.80;;;8.27;;
21987;SDS011;11158;53.404;-1.510;2023-04-29T01:22:59;9.82;;;8.57;;
21987;SDS011;11158;53.404;-1.510;2023-04-29T01:25:43;9.07;;;7.72;;
21987;SDS011;11158;53.404;-1.510;2023-04-29T01:31:48;11.93;;;8.73;;
21987;SDS011;11158;53.404;-1.510;2023-04-29T01:34:43;12.68;;;9.60;;
21987;SDS011;11158;53.404;-1.510;2023-04-29T01:37:47;11.27;;;8.40;;
21987;SDS011;11158;53.404;-1.510;2023-04-29T01:40:47;11.60;;;9.25;;
21987;SDS011;11158;53.404;-1.510;2023-04-29T01:43:39;11.85;;;9.48;;
21987;SDS011;11158;53.404;-1.510;2023-04-29T01:46:24;14.63;;;10.75;;
21987;SDS011;11158;53.404;-1.510;2023-04-29T01:49:08;12.70;;;10.57;;
21987;SDS011;11158;53.404;-1.510;2023-04-29T01:51:52;17.27;;;10.77;;
21987;SDS011;11158;53.404;-1.510;2023-04-29T01:54:36;13.15;;;10.60;;
21987;SDS011;11158;53.404;-1.510;2023-04-29T01:57:21;15.27;;;11.95;;
21987;SDS011;11158;53.404;-1.510;2023-04-29T02:00:06;18.35;;;12.45;;
21987;SDS011;11158;53.404;-1.510;2023-04-29T02:02:51;14.27;;;11.45;;
21987;SDS011;11158;53.404;-1.510;2023-04-29T02:05:36;14.98;;;11.25;;
21987;SDS011;11158;53.404;-1.510;2023-04-29T02:08:20;15.05;;;11.82;;
21987;SDS011;11158;53.404;-1.510;2023-04-29T02:11:04;18.52;;;13.05;;
21987;SDS011;11158;53.404;-1.510;2023-04-29T02:13:48;17.05;;;12.55;;
21987;SDS011;11158;53.404;-1.510;2023-04-29T02:16:32;20.55;;;14.40;;
21987;SDS011;11158;53.404;-1.510;2023-04-29T02:19:16;18.92;;;14.43;;
21987;SDS011;11158;53.404;-1.510;2023-04-29T02:22:00;20.75;;;14.43;;
21987;SDS011;11158;53.404;-1.510;2023-04-29T02:24:45;18.75;;;13.43;;
21987;SDS011;11158;53.404;-1.510;2023-04-29T02:27:30;20.25;;;14.10;;
21987;SDS011;11158;53.404;-1.510;2023-04-29T02:30:14;20.83;;;13.20;;
21987;SDS011;11158;53.404;-1.510;2023-04-29T02:32:59;22.20;;;14.43;;
21987;SDS011;11158;53.404;-1.510;2023-04-29T02:35:43;21.48;;;13.73;;
21987;SDS011;11158;53.404;-1.510;2023-04-29T02:38:27;17.80;;;13.05;;
21987;SDS011;11158;53.404;-1.510;2023-04-29T02:41:15;18.55;;;12.32;;
21987;SDS011;11158;53.404;-1.510;2023-04-29T02:44:01;18.77;;;12.85;;
21987;SDS011;11158;53.404;-1.510;2023-04-29T02:46:44;20.50;;;13.23;;
21987;SDS011;11158;53.404;-1.510;2023-04-29T02:49:29;15.68;;;12.80;;
21987;SDS011;11158;53.404;-1.510;2023-04-29T02:52:13;15.65;;;11.98;;
21987;SDS011;11158;53.404;-1.510;2023-04-29T02:54:57;17.58;;;12.77;;
21987;SDS011;11158;53.404;-1.510;2023-04-29T02:57:41;19.95;;;14.45;;
21987;SDS011;11158;53.404;-1.510;2023-04-29T03:00:25;19.75;;;13.52;;
21987;SDS011;11158;53.404;-1.510;2023-04-29T03:03:09;25.27;;;15.68;;
21987;SDS011;11158;53.404;-1.510;2023-04-29T03:05:53;20.95;;;14.35;;
21987;SDS011;11158;53.404;-1.510;2023-04-29T03:08:37;22.80;;;15.32;;
21987;SDS011;11158;53.404;-1.510;2023-04-29T03:11:21;18.63;;;14.10;;
21987;SDS011;11158;53.404;-1.510;2023-04-29T03:14:07;19.95;;;13.48;;
21987;SDS011;11158;53.404;-1.510;2023-04-29T03:16:51;19.75;;;13.90;;
21987;SDS011;11158;53.404;-1.510;2023-04-29T03:19:35;20.05;;;13.18;;
21987;SDS011;11158;53.404;-1.510;2023-04-29T03:22:19;18.67;;;12.73;;
21987;SDS011;11158;53.404;-1.510;2023-04-29T03:25:04;21.40;;;13.88;;
21987;SDS011;11158;53.404;-1.510;2023-04-29T03:27:48;22.10;;;13.48;;
21987;SDS011;11158;53.404;-1.510;2023-04-29T03:30:33;18.30;;;12.43;;
21987;SDS011;11158;53.404;-1.510;2023-04-29T03:33:17;17.27;;;11.82;;
21987;SDS011;11158;53.404;-1.510;2023-04-29T03:36:01;17.60;;;12.27;;
21987;SDS011;11158;53.404;-1.510;2023-04-29T03:38:46;16.25;;;12.35;;
21987;SDS011;11158;53.404;-1.510;2023-04-29T03:41:30;14.98;;;11.90;;
21987;SDS011;11158;53.404;-1.510;2023-04-29T03:44:15;17.52;;;12.95;;
21987;SDS011;11158;53.404;-1.510;2023-04-29T03:46:59;17.80;;;13.18;;
21987;SDS011;11158;53.404;-1.510;2023-04-29T03:49:43;16.08;;;11.40;;
21987;SDS011;11158;53.404;-1.510;2023-04-29T03:52:28;16.38;;;12.23;;
21987;SDS011;11158;53.404;-1.510;2023-04-29T03:55:13;16.30;;;11.63;;
21987;SDS011;11158;53.404;-1.510;2023-04-29T03:57:57;19.25;;;12.02;;
21987;SDS011;11158;53.404;-1.510;2023-04-29T04:00:41;19.00;;;12.75;;
21987;SDS011;11158;53.404;-1.510;2023-04-29T04:03:25;17.83;;;12.90;;
21987;SDS011;11158;53.404;-1.510;2023-04-29T04:06:10;16.90;;;12.20;;
21987;SDS011;11158;53.404;-1.510;2023-04-29T04:08:54;15.77;;;11.07;;
21987;SDS011;11158;53.404;-1.510;2023-04-29T04:11:38;16.55;;;11.70;;
21987;SDS011;11158;53.404;-1.510;2023-04-29T04:14:23;15.25;;;10.75;;
21987;SDS011;11158;53.404;-1.510;2023-04-29T04:17:07;15.80;;;11.65;;
21987;SDS011;11158;53.404;-1.510;2023-04-29T04:19:51;15.27;;;11.13;;
21987;SDS011;11158;53.404;-1.510;2023-04-29T04:22:35;15.35;;;11.05;;
21987;SDS011;11158;53.404;-1.510;2023-04-29T04:25:20;15.13;;;10.73;;
21987;SDS011;11158;53.404;-1.510;2023-04-29T04:28:04;13.60;;;11.07;;
21987;SDS011;11158;53.404;-1.510;2023-04-29T04:30:49;14.57;;;11.50;;
21987;SDS011;11158;53.404;-1.510;2023-04-29T04:33:33;13.27;;;10.73;;
21987;SDS011;11158;53.404;-1.510;2023-04-29T04:36:17;16.10;;;11.70;;
21987;SDS011;11158;53.404;-1.510;2023-04-29T04:39:02;14.98;;;11.68;;
21987;SDS011;11158;53.404;-1.510;2023-04-29T04:41:46;17.05;;;11.10;;
21987;SDS011;11158;53.404;-1.510;2023-04-29T04:44:30;15.52;;;11.85;;
21987;SDS011;11158;53.404;-1.510;2023-04-29T04:47:14;14.48;;;11.65;;
21987;SDS011;11158;53.404;-1.510;2023-04-29T04:49:58;15.95;;;11.20;;
21987;SDS011;11158;53.404;-1.510;2023-04-29T04:52:43;13.20;;;10.25;;
21987;SDS011;11158;53.404;-1.510;2023-04-29T04:55:27;14.32;;;10.77;;
21987;SDS011;11158;53.404;-1.510;2023-04-29T04:58:11;14.80;;;11.00;;
21987;SDS011;11158;53.404;-1.510;2023-04-29T05:00:55;13.82;;;10.93;;
21987;SDS011;11158;53.404;-1.510;2023-04-29T05:03:39;15.30;;;10.48;;
21987;SDS011;11158;53.404;-1.510;2023-04-29T05:06:23;13.15;;;9.32;;
21987;SDS011;11158;53.404;-1.510;2023-04-29T05:09:07;12.65;;;9.82;;
21987;SDS011;11158;53.404;-1.510;2023-04-29T05:11:51;13.07;;;10.05;;
21987;SDS011;11158;53.404;-1.510;2023-04-29T05:14:37;14.07;;;9.40;;
21987;SDS011;11158;53.404;-1.510;2023-04-29T05:17:21;12.35;;;8.90;;
21987;SDS011;11158;53.404;-1.510;2023-04-29T05:20:05;11.55;;;8.82;;
21987;SDS011;11158;53.404;-1.510;2023-04-29T05:22:50;9.88;;;8.30;;
21987;SDS011;11158;53.404;-1.510;2023-04-29T05:25:34;10.70;;;8.13;;
21987;SDS011;11158;53.404;-1.510;2023-04-29T05:28:18;10.45;;;7.53;;
21987;SDS011;11158;53.404;-1.510;2023-04-29T05:31:02;10.15;;;6.80;;
21987;SDS011;11158;53.404;-1.510;2023-04-29T05:33:46;8.95;;;6.20;;
21987;SDS011;11158;53.404;-1.510;2023-04-29T05:36:30;6.30;;;5.05;;
21987;SDS011;11158;53.404;-1.510;2023-04-29T05:39:14;5.43;;;3.97;;
21987;SDS011;11158;53.404;-1.510;2023-04-29T05:42:00;6.43;;;4.47;;
21987;SDS011;11158;53.404;-1.510;2023-04-29T05:44:46;5.07;;;3.92;;
21987;SDS011;11158;53.404;-1.510;2023-04-29T05:47:30;5.00;;;3.85;;
21987;SDS011;11158;53.404;-1.510;2023-04-29T05:50:14;4.15;;;3.50;;
21987;SDS011;11158;53.404;-1.510;2023-04-29T05:52:58;4.75;;;3.40;;
21987;SDS011;11158;53.404;-1.510;2023-04-29T05:55:42;6.28;;;4.15;;
21987;SDS011;11158;53.404;-1.510;2023-04-29T05:58:27;4.28;;;3.42;;
21987;SDS011;11158;53.404;-1.510;2023-04-29T06:01:12;4.03;;;3.60;;
21987;SDS011;11158;53.404;-1.510;2023-04-29T06:03:55;3.22;;;2.92;;
21987;SDS011;11158;53.404;-1.510;2023-04-29T06:06:39;4.70;;;3.95;;
21987;SDS011;11158;53.404;-1.510;2023-04-29T06:09:23;4.13;;;3.55;;
21987;SDS011;11158;53.404;-1.510;2023-04-29T06:12:08;4.45;;;3.72;;
21987;SDS011;11158;53.404;-1.510;2023-04-29T06:14:53;4.93;;;3.92;;
21987;SDS011;11158;53.404;-1.510;2023-04-29T06:17:37;3.80;;;3.40;;
21987;SDS011;11158;53.404;-1.510;2023-04-29T06:20:22;4.57;;;3.63;;
21987;SDS011;11158;53.404;-1.510;2023-04-29T06:23:06;4.88;;;4.32;;
21987;SDS011;11158;53.404;-1.510;2023-04-29T06:25:50;4.60;;;4.10;;
21987;SDS011;11158;53.404;-1.510;2023-04-29T06:28:34;7.20;;;3.97;;
21987;SDS011;11158;53.404;-1.510;2023-04-29T06:31:18;4.97;;;4.18;;
21987;SDS011;11158;53.404;-1.510;2023-04-29T06:34:03;5.05;;;3.83;;
21987;SDS011;11158;53.404;-1.510;2023-04-29T06:36:48;5.60;;;3.75;;
21987;SDS011;11158;53.404;-1.510;2023-04-29T06:39:32;5.10;;;3.90;;
21987;SDS011;11158;53.404;-1.510;2023-04-29T06:42:16;3.72;;;3.30;;
21987;SDS011;11158;53.404;-1.510;2023-04-29T06:45:00;3.95;;;3.15;;
21987;SDS011;11158;53.404;-1.510;2023-04-29T06:47:44;4.43;;;3.60;;
21987;SDS011;11158;53.404;-1.510;2023-04-29T06:50:29;4.43;;;3.45;;
21987;SDS011;11158;53.404;-1.510;2023-04-29T06:53:13;3.85;;;3.42;;
21987;SDS011;11158;53.404;-1.510;2023-04-29T06:55:57;5.88;;;4.15;;
21987;SDS011;11158;53.404;-1.510;2023-04-29T06:58:41;4.72;;;4.20;;
21987;SDS011;11158;53.404;-1.510;2023-04-29T07:01:25;4.50;;;3.95;;
21987;SDS011;11158;53.404;-1.510;2023-04-29T07:04:09;4.78;;;4.32;;
21987;SDS011;11158;53.404;-1.510;2023-04-29T07:06:54;5.55;;;4.80;;
21987;SDS011;11158;53.404;-1.510;2023-04-29T07:09:39;7.97;;;5.30;;
21987;SDS011;11158;53.404;-1.510;2023-04-29T07:12:23;6.78;;;5.32;;
21987;SDS011;11158;53.404;-1.510;2023-04-29T07:15:07;7.28;;;5.43;;
21987;SDS011;11158;53.404;-1.510;2023-04-29T07:17:51;6.10;;;5.45;;
21987;SDS011;11158;53.404;-1.510;2023-04-29T07:20:36;7.53;;;5.53;;
21987;SDS011;11158;53.404;-1.510;2023-04-29T07:23:20;7.45;;;5.57;;
21987;SDS011;11158;53.404;-1.510;2023-04-29T07:26:14;9.02;;;6.00;;
21987;SDS011;11158;53.404;-1.510;2023-04-29T07:29:00;7.32;;;5.18;;
21987;SDS011;11158;53.404;-1.510;2023-04-29T07:31:44;6.65;;;5.80;;
21987;SDS011;11158;53.404;-1.510;2023-04-29T07:34:28;9.85;;;5.93;;
21987;SDS011;11158;53.404;-1.510;2023-04-29T07:37:12;6.35;;;5.47;;
21987;SDS011;11158;53.404;-1.510;2023-04-29T07:39:57;9.63;;;5.80;;
21987;SDS011;11158;53.404;-1.510;2023-04-29T07:42:41;7.05;;;5.22;;
21987;SDS011;11158;53.404;-1.510;2023-04-29T07:45:25;6.35;;;4.82;;
21987;SDS011;11158;53.404;-1.510;2023-04-29T07:48:09;6.10;;;4.82;;
21987;SDS011;11158;53.404;-1.510;2023-04-29T07:50:53;5.82;;;4.70;;
21987;SDS011;11158;53.404;-1.510;2023-04-29T07:53:37;5.95;;;2.70;;
21987;SDS011;11158;53.404;-1.510;2023-04-29T07:56:21;2.10;;;1.80;;
21987;SDS011;11158;53.404;-1.510;2023-04-29T07:59:06;2.85;;;2.05;;
21987;SDS011;11158;53.404;-1.510;2023-04-29T08:01:50;4.97;;;1.90;;
21987;SDS011;11158;53.404;-1.510;2023-04-29T08:04:38;2.53;;;1.98;;
21987;SDS011;11158;53.404;-1.510;2023-04-29T08:07:23;4.68;;;1.77;;
21987;SDS011;11158;53.404;-1.510;2023-04-29T08:10:07;0.93;;;0.93;;
21987;SDS011;11158;53.404;-1.510;2023-04-29T08:12:52;1.98;;;1.70;;
21987;SDS011;11158;53.404;-1.510;2023-04-29T08:15:36;3.67;;;2.08;;
21987;SDS011;11158;53.404;-1.510;2023-04-29T08:18:20;2.50;;;2.30;;
21987;SDS011;11158;53.404;-1.510;2023-04-29T08:21:04;3.15;;;2.45;;
21987;SDS011;11158;53.404;-1.510;2023-04-29T08:23:48;2.90;;;2.42;;
21987;SDS011;11158;53.404;-1.510;2023-04-29T08:26:32;5.22;;;2.63;;
21987;SDS011;11158;53.404;-1.510;2023-04-29T08:29:16;2.42;;;2.13;;
21987;SDS011;11158;53.404;-1.510;2023-04-29T08:32:01;3.58;;;2.22;;
21987;SDS011;11158;53.404;-1.510;2023-04-29T08:34:45;4.25;;;2.75;;
21987;SDS011;11158;53.404;-1.510;2023-04-29T08:37:30;3.95;;;2.90;;
21987;SDS011;11158;53.404;-1.510;2023-04-29T08:40:14;3.58;;;3.15;;
21987;SDS011;11158;53.404;-1.510;2023-04-29T08:42:58;5.28;;;3.30;;
21987;SDS011;11158;53.404;-1.510;2023-04-29T08:45:43;3.40;;;3.10;;
21987;SDS011;11158;53.404;-1.510;2023-04-29T08:48:29;3.83;;;2.97;;
21987;SDS011;11158;53.404;-1.510;2023-04-29T08:51:14;3.95;;;3.65;;
21987;SDS011;11158;53.404;-1.510;2023-04-29T08:53:58;4.90;;;4.47;;
21987;SDS011;11158;53.404;-1.510;2023-04-29T08:56:44;5.40;;;4.20;;
21987;SDS011;11158;53.404;-1.510;2023-04-29T08:59:29;4.55;;;4.05;;
21987;SDS011;11158;53.404;-1.510;2023-04-29T09:02:14;4.25;;;3.80;;
21987;SDS011;11158;53.404;-1.510;2023-04-29T09:05:04;4.78;;;4.28;;
21987;SDS011;11158;53.404;-1.510;2023-04-29T09:07:52;4.80;;;3.58;;
21987;SDS011;11158;53.404;-1.510;2023-04-29T09:10:36;4.10;;;3.50;;
21987;SDS011;11158;53.404;-1.510;2023-04-29T09:13:25;4.63;;;3.70;;
21987;SDS011;11158;53.404;-1.510;2023-04-29T09:16:11;5.70;;;4.15;;
21987;SDS011;11158;53.404;-1.510;2023-04-29T09:18:56;3.83;;;3.13;;
21987;SDS011;11158;53.404;-1.510;2023-04-29T09:21:40;5.40;;;3.95;;
21987;SDS011;11158;53.404;-1.510;2023-04-29T09:24:38;4.97;;;3.72;;
21987;SDS011;11158;53.404;-1.510;2023-04-29T09:27:26;5.32;;;3.58;;
21987;SDS011;11158;53.404;-1.510;2023-04-29T09:30:12;5.10;;;3.22;;
21987;SDS011;11158;53.404;-1.510;2023-04-29T09:33:16;3.90;;;3.17;;
21987;SDS011;11158;53.404;-1.510;2023-04-29T09:36:00;3.47;;;3.17;;
21987;SDS011;11158;53.404;-1.510;2023-04-29T09:38:53;3.40;;;2.70;;
21987;SDS011;11158;53.404;-1.510;2023-04-29T09:41:39;4.28;;;3.80;;
21987;SDS011;11158;53.404;-1.510;2023-04-29T09:44:26;8.98;;;4.13;;
21987;SDS011;11158;53.404;-1.510;2023-04-29T09:47:14;5.57;;;4.55;;
21987;SDS011;11158;53.404;-1.510;2023-04-29T09:50:09;7.55;;;4.85;;
21987;SDS011;11158;53.404;-1.510;2023-04-29T09:52:56;5.93;;;5.30;;
21987;SDS011;11158;53.404;-1.510;2023-04-29T09:58:44;7.28;;;4.20;;
21987;SDS011;11158;53.404;-1.510;2023-04-29T10:01:29;4.45;;;3.05;;
21987;SDS011;11158;53.404;-1.510;2023-04-29T10:04:15;4.40;;;4.00;;
21987;SDS011;11158;53.404;-1.510;2023-04-29T10:07:00;4.72;;;4.00;;
21987;SDS011;11158;53.404;-1.510;2023-04-29T10:09:45;5.13;;;4.47;;
21987;SDS011;11158;53.404;-1.510;2023-04-29T10:12:30;6.43;;;3.90;;
21987;SDS011;11158;53.404;-1.510;2023-04-29T10:15:51;3.92;;;3.38;;
21987;SDS011;11158;53.404;-1.510;2023-04-29T10:18:36;4.20;;;3.78;;
21987;SDS011;11158;53.404;-1.510;2023-04-29T10:21:26;4.20;;;3.60;;
21987;SDS011;11158;53.404;-1.510;2023-04-29T10:24:15;5.88;;;3.90;;
21987;SDS011;11158;53.404;-1.510;2023-04-29T10:27:01;4.05;;;3.50;;
21987;SDS011;11158;53.404;-1.510;2023-04-29T10:29:49;5.63;;;4.22;;
21987;SDS011;11158;53.404;-1.510;2023-04-29T10:32:35;4.80;;;4.35;;
21987;SDS011;11158;53.404;-1.510;2023-04-29T10:35:21;5.97;;;4.45;;
21987;SDS011;11158;53.404;-1.510;2023-04-29T10:38:10;5.15;;;4.65;;
21987;SDS011;11158;53.404;-1.510;2023-04-29T10:41:03;5.00;;;4.47;;
21987;SDS011;11158;53.404;-1.510;2023-04-29T10:43:53;6.72;;;5.30;;
21987;SDS011;11158;53.404;-1.510;2023-04-29T10:46:38;6.10;;;5.25;;
21987;SDS011;11158;53.404;-1.510;2023-04-29T10:49:23;6.70;;;4.90;;
21987;SDS011;11158;53.404;-1.510;2023-04-29T10:52:06;6.10;;;5.03;;
21987;SDS011;11158;53.404;-1.510;2023-04-29T10:55:01;5.75;;;5.00;;
21987;SDS011;11158;53.404;-1.510;2023-04-29T10:57:47;5.00;;;4.22;;
21987;SDS011;11158;53.404;-1.510;2023-04-29T11:00:34;4.80;;;4.20;;
21987;SDS011;11158;53.404;-1.510;2023-04-29T11:06:42;5.82;;;4.22;;
21987;SDS011;11158;53.404;-1.510;2023-04-29T11:09:29;4.38;;;3.83;;
21987;SDS011;11158;53.404;-1.510;2023-04-29T11:12:18;4.93;;;3.88;;
21987;SDS011;11158;53.404;-1.510;2023-04-29T11:15:03;3.75;;;3.45;;
21987;SDS011;11158;53.404;-1.510;2023-04-29T11:17:56;4.55;;;4.00;;
21987;SDS011;11158;53.404;-1.510;2023-04-29T11:23:51;5.53;;;4.28;;
21987;SDS011;11158;53.404;-1.510;2023-04-29T11:26:35;6.13;;;4.00;;
21987;SDS011;11158;53.404;-1.510;2023-04-29T11:29:20;5.57;;;3.10;;
21987;SDS011;11158;53.404;-1.510;2023-04-29T11:32:05;3.95;;;3.25;;
21987;SDS011;11158;53.404;-1.510;2023-04-29T11:34:51;3.08;;;2.78;;
21987;SDS011;11158;53.404;-1.510;2023-04-29T11:37:37;7.18;;;2.60;;
21987;SDS011;11158;53.404;-1.510;2023-04-29T11:40:22;2.55;;;1.95;;
21987;SDS011;11158;53.404;-1.510;2023-04-29T11:43:06;2.15;;;1.95;;
21987;SDS011;11158;53.404;-1.510;2023-04-29T11:45:51;2.20;;;1.67;;
21987;SDS011;11158;53.404;-1.510;2023-04-29T11:48:45;5.43;;;1.88;;
21987;SDS011;11158;53.404;-1.510;2023-04-29T11:51:30;2.10;;;1.90;;
21987;SDS011;11158;53.404;-1.510;2023-04-29T11:54:15;2.00;;;1.80;;
21987;SDS011;11158;53.404;-1.510;2023-04-29T11:56:59;2.15;;;1.83;;
21987;SDS011;11158;53.404;-1.510;2023-04-29T11:59:47;2.10;;;1.77;;
21987;SDS011;11158;53.404;-1.510;2023-04-29T12:02:31;1.75;;;1.65;;
21987;SDS011;11158;53.404;-1.510;2023-04-29T12:05:17;3.08;;;1.90;;
21987;SDS011;11158;53.404;-1.510;2023-04-29T12:08:01;1.73;;;1.63;;
21987;SDS011;11158;53.404;-1.510;2023-04-29T12:10:46;1.92;;;1.65;;
21987;SDS011;11158;53.404;-1.510;2023-04-29T12:13:31;2.20;;;2.00;;
21987;SDS011;11158;53.404;-1.510;2023-04-29T12:16:19;3.25;;;1.90;;
21987;SDS011;11158;53.404;-1.510;2023-04-29T12:19:03;3.33;;;2.30;;
21987;SDS011;11158;53.404;-1.510;2023-04-29T12:21:48;2.45;;;2.25;;
21987;SDS011;11158;53.404;-1.510;2023-04-29T12:24:36;2.30;;;2.10;;
21987;SDS011;11158;53.404;-1.510;2023-04-29T12:27:21;2.72;;;1.92;;
21987;SDS011;11158;53.404;-1.510;2023-04-29T12:30:06;1.60;;;1.50;;
21987;SDS011;11158;53.404;-1.510;2023-04-29T12:32:52;2.10;;;1.88;;
21987;SDS011;11158;53.404;-1.510;2023-04-29T12:35:36;4.00;;;1.95;;
21987;SDS011;11158;53.404;-1.510;2023-04-29T12:38:28;2.45;;;2.13;;
21987;SDS011;11158;53.404;-1.510;2023-04-29T12:41:12;2.85;;;2.05;;
21987;SDS011;11158;53.404;-1.510;2023-04-29T12:43:58;2.22;;;1.90;;
21987;SDS011;11158;53.404;-1.510;2023-04-29T12:46:43;2.03;;;1.90;;
21987;SDS011;11158;53.404;-1.510;2023-04-29T12:49:27;2.30;;;2.00;;
21987;SDS011;11158;53.404;-1.510;2023-04-29T12:52:11;2.67;;;2.33;;
21987;SDS011;11158;53.404;-1.510;2023-04-29T12:54:56;3.22;;;2.92;;
21987;SDS011;11158;53.404;-1.510;2023-04-29T12:57:41;3.75;;;2.90;;
21987;SDS011;11158;53.404;-1.510;2023-04-29T13:00:25;3.45;;;3.15;;
21987;SDS011;11158;53.404;-1.510;2023-04-29T13:03:10;3.40;;;3.08;;
21987;SDS011;11158;53.404;-1.510;2023-04-29T13:05:54;3.65;;;2.83;;
21987;SDS011;11158;53.404;-1.510;2023-04-29T13:08:39;3.90;;;3.28;;
21987;SDS011;11158;53.404;-1.510;2023-04-29T13:11:26;4.53;;;2.78;;
21987;SDS011;11158;53.404;-1.510;2023-04-29T13:14:10;4.07;;;3.38;;
21987;SDS011;11158;53.404;-1.510;2023-04-29T13:16:54;4.60;;;3.75;;
21987;SDS011;11158;53.404;-1.510;2023-04-29T13:19:38;5.15;;;4.65;;
21987;SDS011;11158;53.404;-1.510;2023-04-29T13:22:23;5.35;;;3.95;;
21987;SDS011;11158;53.404;-1.510;2023-04-29T13:25:07;5.00;;;4.25;;
21987;SDS011;11158;53.404;-1.510;2023-04-29T13:27:51;4.80;;;4.10;;
21987;SDS011;11158;53.404;-1.510;2023-04-29T13:30:35;6.30;;;4.20;;
21987;SDS011;11158;53.404;-1.510;2023-04-29T13:33:19;4.30;;;3.80;;
21987;SDS011;11158;53.404;-1.510;2023-04-29T13:36:03;4.57;;;3.90;;
21987;SDS011;11158;53.404;-1.510;2023-04-29T13:38:48;5.47;;;3.38;;
21987;SDS011;11158;53.404;-1.510;2023-04-29T13:41:32;4.57;;;3.80;;
21987;SDS011;11158;53.404;-1.510;2023-04-29T13:44:17;3.63;;;3.33;;
21987;SDS011;11158;53.404;-1.510;2023-04-29T13:47:02;3.72;;;3.25;;
21987;SDS011;11158;53.404;-1.510;2023-04-29T13:49:49;3.50;;;3.20;;
21987;SDS011;11158;53.404;-1.510;2023-04-29T13:52:33;3.90;;;3.03;;
21987;SDS011;11158;53.404;-1.510;2023-04-29T13:55:17;4.47;;;4.03;;
21987;SDS011;11158;53.404;-1.510;2023-04-29T13:58:02;3.25;;;2.95;;
21987;SDS011;11158;53.404;-1.510;2023-04-29T14:00:46;3.40;;;3.10;;
21987;SDS011;11158;53.404;-1.510;2023-04-29T14:03:30;3.35;;;2.88;;
21987;SDS011;11158;53.404;-1.510;2023-04-29T14:06:14;3.88;;;3.08;;
21987;SDS011;11158;53.404;-1.510;2023-04-29T14:08:59;2.80;;;2.60;;
21987;SDS011;11158;53.404;-1.510;2023-04-29T14:11:43;3.00;;;2.70;;
21987;SDS011;11158;53.404;-1.510;2023-04-29T14:14:27;5.38;;;4.07;;
21987;SDS011;11158;53.404;-1.510;2023-04-29T14:17:11;4.53;;;4.00;;
21987;SDS011;11158;53.404;-1.510;2023-04-29T14:19:56;3.95;;;3.50;;
21987;SDS011;11158;53.404;-1.510;2023-04-29T14:22:40;3.40;;;3.10;;
21987;SDS011;11158;53.404;-1.510;2023-04-29T14:25:24;6.25;;;3.38;;
21987;SDS011;11158;53.404;-1.510;2023-04-29T14:28:09;3.15;;;2.83;;
21987;SDS011;11158;53.404;-1.510;2023-04-29T14:30:54;2.72;;;2.47;;
21987;SDS011;11158;53.404;-1.510;2023-04-29T14:33:39;4.40;;;3.08;;
21987;SDS011;11158;53.404;-1.510;2023-04-29T14:36:24;3.58;;;3.28;;
21987;SDS011;11158;53.404;-1.510;2023-04-29T14:39:09;3.90;;;3.50;;
21987;SDS011;11158;53.404;-1.510;2023-04-29T14:41:53;3.60;;;3.10;;
21987;SDS011;11158;53.404;-1.510;2023-04-29T14:44:37;3.78;;;3.05;;
21987;SDS011;11158;53.404;-1.510;2023-04-29T14:47:22;4.15;;;2.80;;
21987;SDS011;11158;53.404;-1.510;2023-04-29T14:50:07;3.33;;;3.00;;
21987;SDS011;11158;53.404;-1.510;2023-04-29T14:52:52;3.20;;;2.85;;
21987;SDS011;11158;53.404;-1.510;2023-04-29T14:55:36;3.08;;;2.63;;
21987;SDS011;11158;53.404;-1.510;2023-04-29T14:58:21;3.47;;;3.15;;
21987;SDS011;11158;53.404;-1.510;2023-04-29T15:01:05;4.28;;;3.88;;
21987;SDS011;11158;53.404;-1.510;2023-04-29T15:03:50;4.78;;;3.90;;
21987;SDS011;11158;53.404;-1.510;2023-04-29T15:06:34;4.22;;;3.83;;
21987;SDS011;11158;53.404;-1.510;2023-04-29T15:09:18;5.45;;;4.35;;
21987;SDS011;11158;53.404;-1.510;2023-04-29T15:12:02;5.57;;;5.07;;
21987;SDS011;11158;53.404;-1.510;2023-04-29T15:14:47;6.10;;;5.50;;
21987;SDS011;11158;53.404;-1.510;2023-04-29T15:17:31;6.40;;;5.75;;
21987;SDS011;11158;53.404;-1.510;2023-04-29T15:20:15;6.07;;;5.00;;
21987;SDS011;11158;53.404;-1.510;2023-04-29T15:22:59;5.93;;;5.30;;
21987;SDS011;11158;53.404;-1.510;2023-04-29T15:25:43;6.55;;;5.43;;
21987;SDS011;11158;53.404;-1.510;2023-04-29T15:28:27;6.78;;;6.13;;
21987;SDS011;11158;53.404;-1.510;2023-04-29T15:31:11;6.65;;;6.05;;
21987;SDS011;11158;53.404;-1.510;2023-04-29T15:33:56;6.57;;;5.75;;
21987;SDS011;11158;53.404;-1.510;2023-04-29T15:36:40;6.93;;;6.13;;
21987;SDS011;11158;53.404;-1.510;2023-04-29T15:39:24;7.00;;;5.90;;
21987;SDS011;11158;53.404;-1.510;2023-04-29T15:42:08;6.57;;;5.80;;
21987;SDS011;11158;53.404;-1.510;2023-04-29T15:44:53;7.18;;;6.47;;
21987;SDS011;11158;53.404;-1.510;2023-04-29T15:47:37;8.80;;;6.07;;
21987;SDS011;11158;53.404;-1.510;2023-04-29T15:50:21;7.90;;;6.63;;
21987;SDS011;11158;53.404;-1.510;2023-04-29T15:53:05;7.13;;;6.43;;
21987;SDS011;11158;53.404;-1.510;2023-04-29T15:55:49;7.47;;;6.78;;
21987;SDS011;11158;53.404;-1.510;2023-04-29T15:58:34;7.70;;;6.78;;
21987;SDS011;11158;53.404;-1.510;2023-04-29T16:01:18;7.80;;;7.00;;
21987;SDS011;11158;53.404;-1.510;2023-04-29T16:04:02;7.75;;;7.03;;
21987;SDS011;11158;53.404;-1.510;2023-04-29T16:06:47;7.78;;;6.97;;
21987;SDS011;11158;53.404;-1.510;2023-04-29T16:09:32;7.80;;;6.80;;
21987;SDS011;11158;53.404;-1.510;2023-04-29T16:12:31;7.78;;;7.05;;
21987;SDS011;11158;53.404;-1.510;2023-04-29T16:15:17;8.45;;;7.65;;
21987;SDS011;11158;53.404;-1.510;2023-04-29T16:18:01;6.88;;;6.28;;
21987;SDS011;11158;53.404;-1.510;2023-04-29T16:20:45;9.10;;;7.90;;
21987;SDS011;11158;53.404;-1.510;2023-04-29T16:23:30;9.57;;;8.68;;
21987;SDS011;11158;53.404;-1.510;2023-04-29T16:26:14;8.70;;;7.90;;
21987;SDS011;11158;53.404;-1.510;2023-04-29T16:28:58;10.10;;;8.98;;